createdAt,value
2017-05-03T00:00:16.794Z,0
2017-05-03T00:00:57.369Z,0
2017-05-03T00:01:37.912Z,0
2017-05-03T00:02:18.452Z,0
2017-05-03T00:02:58.970Z,0
2017-05-03T00:03:39.487Z,0
2017-05-03T00:04:19.999Z,0
2017-05-03T00:05:00.551Z,0
2017-05-03T00:05:41.066Z,0
2017-05-03T00:06:21.588Z,0
2017-05-03T00:07:02.092Z,0
2017-05-03T00:07:42.621Z,0
2017-05-03T00:08:23.130Z,0
2017-05-03T00:09:03.674Z,0
2017-05-03T00:09:44.194Z,0
2017-05-03T00:10:24.713Z,0
2017-05-03T00:11:05.246Z,0
2017-05-03T00:11:45.765Z,0
2017-05-03T00:12:26.275Z,0
2017-05-03T00:13:06.806Z,0
2017-05-03T00:13:47.315Z,0
2017-05-03T00:14:27.868Z,0
2017-05-03T00:15:08.380Z,0
2017-05-03T00:15:48.913Z,0
2017-05-03T00:16:29.422Z,0
2017-05-03T00:17:09.947Z,0
2017-05-03T00:17:50.477Z,0
2017-05-03T00:18:30.991Z,0
2017-05-03T00:19:11.514Z,0
2017-05-03T00:19:52.054Z,0
2017-05-03T00:20:32.578Z,0
2017-05-03T00:21:13.104Z,0
2017-05-03T00:21:53.630Z,0
2017-05-03T00:22:34.157Z,0
2017-05-03T00:23:14.699Z,0
2017-05-03T00:23:55.227Z,0
2017-05-03T00:24:35.740Z,0
2017-05-03T00:25:16.272Z,0
2017-05-03T00:25:56.810Z,0
2017-05-03T00:26:37.325Z,0
2017-05-03T00:27:17.852Z,0
2017-05-03T00:27:58.368Z,0
2017-05-03T00:28:38.901Z,0
2017-05-03T00:29:19.417Z,0
2017-05-03T00:29:59.942Z,0
2017-05-03T00:30:40.481Z,0
2017-05-03T00:31:21.012Z,0
2017-05-03T00:32:01.530Z,0
2017-05-03T00:32:42.053Z,0
2017-05-03T00:33:22.562Z,0
2017-05-03T00:34:03.078Z,0
2017-05-03T00:34:43.596Z,0
2017-05-03T00:35:24.122Z,0
2017-05-03T00:36:04.629Z,0
2017-05-03T00:36:45.130Z,0
2017-05-03T00:37:25.624Z,0
2017-05-03T00:38:06.134Z,0
2017-05-03T00:38:46.668Z,0
2017-05-03T00:39:27.184Z,0
2017-05-03T00:40:07.711Z,0
2017-05-03T00:40:48.235Z,0
2017-05-03T00:41:28.753Z,0
2017-05-03T00:42:09.251Z,0
2017-05-03T00:42:49.787Z,0
2017-05-03T00:43:30.305Z,0
2017-05-03T00:44:10.823Z,0
2017-05-03T00:44:51.349Z,0
2017-05-03T00:45:31.876Z,0
2017-05-03T00:46:12.404Z,0
2017-05-03T00:46:52.940Z,0
2017-05-03T00:47:33.472Z,0
2017-05-03T00:48:14.000Z,0
2017-05-03T00:48:54.573Z,0
2017-05-03T00:49:35.085Z,0
2017-05-03T00:50:15.623Z,0
2017-05-03T00:50:56.134Z,0
2017-05-03T00:51:36.649Z,0
2017-05-03T00:52:17.178Z,0
2017-05-03T00:52:57.694Z,0
2017-05-03T00:53:38.203Z,0
2017-05-03T00:54:18.720Z,0
2017-05-03T00:54:59.259Z,0
2017-05-03T00:55:39.785Z,0
2017-05-03T00:56:20.293Z,0
2017-05-03T00:57:00.799Z,0
2017-05-03T00:57:41.346Z,0
2017-05-03T00:58:21.853Z,0
2017-05-03T00:59:02.382Z,0
2017-05-03T00:59:42.911Z,0
2017-05-03T01:00:23.423Z,0
2017-05-03T01:01:03.938Z,0
2017-05-03T01:01:44.468Z,0
2017-05-03T01:02:24.991Z,0
2017-05-03T01:03:05.496Z,0
2017-05-03T01:03:46.029Z,0
2017-05-03T01:04:26.522Z,0
2017-05-03T01:05:07.090Z,0
2017-05-03T01:05:47.597Z,0
2017-05-03T01:06:28.134Z,0
2017-05-03T01:07:08.671Z,0
2017-05-03T01:07:49.218Z,0
2017-05-03T01:08:29.744Z,0
2017-05-03T01:09:10.273Z,0
2017-05-03T01:09:50.767Z,0
2017-05-03T01:10:31.282Z,0
2017-05-03T01:11:11.819Z,0
2017-05-03T01:11:52.336Z,0
2017-05-03T01:12:32.862Z,0
2017-05-03T01:13:13.400Z,0
2017-05-03T01:13:53.921Z,0
2017-05-03T01:14:34.466Z,0
2017-05-03T01:15:14.973Z,0
2017-05-03T01:15:55.476Z,0
2017-05-03T01:16:35.990Z,0
2017-05-03T01:17:16.532Z,0
2017-05-03T01:17:57.050Z,0
2017-05-03T01:18:37.556Z,0
2017-05-03T01:19:18.064Z,0
2017-05-03T01:19:58.583Z,0
2017-05-03T01:20:39.130Z,0
2017-05-03T01:21:19.646Z,0
2017-05-03T01:22:00.185Z,0
2017-05-03T01:22:40.672Z,0
2017-05-03T01:23:21.202Z,0
2017-05-03T01:24:01.714Z,0
2017-05-03T01:24:42.237Z,0
2017-05-03T01:25:22.749Z,0
2017-05-03T01:26:03.268Z,0
2017-05-03T01:26:43.787Z,0
2017-05-03T01:27:24.299Z,0
2017-05-03T01:28:04.818Z,0
2017-05-03T01:28:45.338Z,0
2017-05-03T01:29:25.891Z,0
2017-05-03T01:30:06.406Z,0
2017-05-03T01:30:46.940Z,0
2017-05-03T01:31:27.470Z,0
2017-05-03T01:32:07.989Z,0
2017-05-03T01:32:51.009Z,0
2017-05-03T01:33:31.529Z,0
2017-05-03T01:34:12.079Z,0
2017-05-03T01:34:52.611Z,0
2017-05-03T01:35:33.076Z,0
2017-05-03T01:36:13.588Z,0
2017-05-03T01:36:54.118Z,0
2017-05-03T01:37:34.656Z,0
2017-05-03T01:38:15.157Z,0
2017-05-03T01:38:55.669Z,0
2017-05-03T01:39:36.208Z,0
2017-05-03T01:40:16.732Z,0
2017-05-03T01:40:57.261Z,0
2017-05-03T01:41:37.804Z,0
2017-05-03T01:42:18.283Z,0
2017-05-03T01:42:58.798Z,0
2017-05-03T01:43:39.317Z,0
2017-05-03T01:44:19.824Z,0
2017-05-03T01:45:00.349Z,0
2017-05-03T01:45:40.901Z,0
2017-05-03T01:46:21.428Z,0
2017-05-03T01:47:01.977Z,0
2017-05-03T01:47:42.507Z,0
2017-05-03T01:48:23.054Z,0
2017-05-03T01:49:03.631Z,0
2017-05-03T01:49:44.148Z,0
2017-05-03T01:50:24.663Z,0
2017-05-03T01:51:05.184Z,0
2017-05-03T01:51:45.718Z,0
2017-05-03T01:52:26.231Z,0
2017-05-03T01:53:06.762Z,0
2017-05-03T01:53:47.283Z,0
2017-05-03T01:54:27.809Z,0
2017-05-03T01:55:08.344Z,0
2017-05-03T01:55:48.915Z,0
2017-05-03T01:56:29.394Z,0
2017-05-03T01:57:09.930Z,0
2017-05-03T01:57:50.430Z,0
2017-05-03T01:58:30.974Z,0
2017-05-03T01:59:11.492Z,0
2017-05-03T01:59:52.073Z,0
2017-05-03T02:00:32.564Z,0
2017-05-03T02:01:13.107Z,0
2017-05-03T02:01:53.637Z,0
2017-05-03T02:02:34.160Z,0
2017-05-03T02:03:14.686Z,0
2017-05-03T02:03:55.215Z,0
2017-05-03T02:04:35.738Z,0
2017-05-03T02:05:16.277Z,0
2017-05-03T02:05:56.795Z,0
2017-05-03T02:06:37.322Z,0
2017-05-03T02:07:17.867Z,0
2017-05-03T02:07:58.407Z,0
2017-05-03T02:08:38.943Z,0
2017-05-03T02:09:19.483Z,0
2017-05-03T02:09:59.985Z,0
2017-05-03T02:10:40.522Z,0
2017-05-03T02:11:21.049Z,0
2017-05-03T02:12:01.604Z,0
2017-05-03T02:12:42.087Z,0
2017-05-03T02:13:22.607Z,0
2017-05-03T02:14:03.179Z,0
2017-05-03T02:14:43.667Z,0
2017-05-03T02:15:24.188Z,0
2017-05-03T02:16:04.712Z,0
2017-05-03T02:16:45.240Z,0
2017-05-03T02:17:25.753Z,0
2017-05-03T02:18:06.260Z,0
2017-05-03T02:18:46.768Z,0
2017-05-03T02:19:27.298Z,0
2017-05-03T02:20:07.813Z,0
2017-05-03T02:20:48.344Z,0
2017-05-03T02:21:28.879Z,0
2017-05-03T02:22:09.398Z,0
2017-05-03T02:22:49.922Z,0
2017-05-03T02:23:30.447Z,0
2017-05-03T02:24:10.985Z,0
2017-05-03T02:24:51.520Z,0
2017-05-03T02:25:32.057Z,0
2017-05-03T02:26:12.596Z,0
2017-05-03T02:26:53.120Z,0
2017-05-03T02:27:33.647Z,0
2017-05-03T02:28:14.177Z,0
2017-05-03T02:28:54.699Z,0
2017-05-03T02:29:35.231Z,0
2017-05-03T02:30:15.760Z,0
2017-05-03T02:30:56.270Z,0
2017-05-03T02:31:36.796Z,0
2017-05-03T02:32:17.327Z,0
2017-05-03T02:32:57.832Z,0
2017-05-03T02:33:38.354Z,0
2017-05-03T02:34:18.882Z,0
2017-05-03T02:34:59.416Z,0
2017-05-03T02:35:39.945Z,0
2017-05-03T02:36:20.471Z,0
2017-05-03T02:37:00.981Z,0
2017-05-03T02:37:41.504Z,0
2017-05-03T02:38:22.012Z,0
2017-05-03T02:39:02.543Z,0
2017-05-03T02:39:43.060Z,0
2017-05-03T02:40:23.586Z,0
2017-05-03T02:41:04.085Z,0
2017-05-03T02:41:44.612Z,0
2017-05-03T02:42:25.152Z,0
2017-05-03T02:43:05.660Z,0
2017-05-03T02:43:46.188Z,0
2017-05-03T02:44:26.705Z,0
2017-05-03T02:45:07.235Z,0
2017-05-03T02:45:47.759Z,0
2017-05-03T02:46:28.290Z,0
2017-05-03T02:47:08.800Z,0
2017-05-03T02:47:49.329Z,0
2017-05-03T02:48:29.862Z,0
2017-05-03T02:49:10.377Z,0
2017-05-03T02:49:50.892Z,0
2017-05-03T02:50:31.428Z,0
2017-05-03T02:51:11.951Z,0
2017-05-03T02:51:52.495Z,0
2017-05-03T02:52:32.970Z,0
2017-05-03T02:53:13.486Z,0
2017-05-03T02:53:53.998Z,0
2017-05-03T02:54:34.524Z,0
2017-05-03T02:55:15.040Z,0
2017-05-03T02:55:55.561Z,0
2017-05-03T02:56:36.089Z,0
2017-05-03T02:57:16.617Z,0
2017-05-03T02:57:57.169Z,0
2017-05-03T02:58:37.678Z,0
2017-05-03T02:59:18.198Z,0
2017-05-03T02:59:58.740Z,0
2017-05-03T03:00:39.260Z,0
2017-05-03T03:01:19.856Z,0
2017-05-03T03:02:00.325Z,0
2017-05-03T03:02:40.845Z,0
2017-05-03T03:03:21.376Z,0
2017-05-03T03:04:01.867Z,0
2017-05-03T03:04:42.396Z,0
2017-05-03T03:05:22.903Z,0
2017-05-03T03:06:03.442Z,0
2017-05-03T03:06:43.938Z,0
2017-05-03T03:07:24.467Z,0
2017-05-03T03:08:04.981Z,0
2017-05-03T03:08:45.504Z,0
2017-05-03T03:09:26.019Z,0
2017-05-03T03:10:06.524Z,0
2017-05-03T03:10:47.041Z,0
2017-05-03T03:11:27.569Z,0
2017-05-03T03:12:08.095Z,0
2017-05-03T03:12:48.596Z,0
2017-05-03T03:13:29.132Z,0
2017-05-03T03:14:09.618Z,0
2017-05-03T03:14:50.126Z,0
2017-05-03T03:15:30.612Z,0
2017-05-03T03:16:11.122Z,0
2017-05-03T03:16:51.618Z,0
2017-05-03T03:17:32.128Z,0
2017-05-03T03:18:12.656Z,0
2017-05-03T03:18:53.154Z,0
2017-05-03T03:19:33.688Z,0
2017-05-03T03:20:14.192Z,0
2017-05-03T03:20:54.675Z,0
2017-05-03T03:21:35.179Z,0
2017-05-03T03:22:15.694Z,0
2017-05-03T03:22:56.217Z,0
2017-05-03T03:23:36.719Z,0
2017-05-03T03:24:17.245Z,0
2017-05-03T03:24:57.763Z,0
2017-05-03T03:25:38.268Z,0
2017-05-03T03:26:18.783Z,0
2017-05-03T03:26:59.300Z,0
2017-05-03T03:27:39.825Z,0
2017-05-03T03:28:20.351Z,0
2017-05-03T03:29:00.891Z,0
2017-05-03T03:29:41.417Z,0
2017-05-03T03:30:21.932Z,0
2017-05-03T03:31:02.437Z,0
2017-05-03T03:31:42.967Z,0
2017-05-03T03:32:23.467Z,0
2017-05-03T03:33:04.066Z,0
2017-05-03T03:33:44.567Z,0
2017-05-03T03:34:25.087Z,0
2017-05-03T03:35:05.614Z,0
2017-05-03T03:35:46.172Z,0
2017-05-03T03:36:26.696Z,0
2017-05-03T03:37:07.201Z,0
2017-05-03T03:37:47.740Z,0
2017-05-03T03:38:28.275Z,0
2017-05-03T03:39:08.841Z,0
2017-05-03T03:39:49.308Z,0
2017-05-03T03:40:29.834Z,0
2017-05-03T03:41:10.362Z,0
2017-05-03T03:41:50.876Z,0
2017-05-03T03:42:31.373Z,0
2017-05-03T03:43:11.854Z,0
2017-05-03T03:43:52.396Z,0
2017-05-03T03:44:32.957Z,0
2017-05-03T03:45:13.436Z,0
2017-05-03T03:45:53.959Z,0
2017-05-03T03:46:34.506Z,0
2017-05-03T03:47:15.004Z,0
2017-05-03T03:47:55.516Z,0
2017-05-03T03:48:36.043Z,0
2017-05-03T03:49:16.548Z,0
2017-05-03T03:49:57.046Z,0
2017-05-03T03:50:37.613Z,0
2017-05-03T03:51:18.195Z,0
2017-05-03T03:51:58.777Z,0
2017-05-03T03:52:39.325Z,0
2017-05-03T03:53:19.842Z,0
2017-05-03T03:54:00.351Z,0
2017-05-03T03:54:40.875Z,0
2017-05-03T03:55:21.390Z,0
2017-05-03T03:56:01.903Z,0
2017-05-03T03:56:42.425Z,0
2017-05-03T03:57:22.930Z,0
2017-05-03T03:58:03.490Z,0
2017-05-03T03:58:44.019Z,0
2017-05-03T03:59:24.542Z,0
2017-05-03T04:00:05.084Z,0
2017-05-03T04:00:45.688Z,0
2017-05-03T04:01:26.201Z,0
2017-05-03T04:02:06.715Z,0
2017-05-03T04:02:47.248Z,0
2017-05-03T04:03:27.759Z,0
2017-05-03T04:04:08.280Z,0
2017-05-03T04:04:48.927Z,0
2017-05-03T04:05:29.406Z,0
2017-05-03T04:06:09.922Z,0
2017-05-03T04:06:50.407Z,0
2017-05-03T04:07:30.902Z,0
2017-05-03T04:08:11.405Z,0
2017-05-03T04:08:51.877Z,0
2017-05-03T04:09:32.383Z,0
2017-05-03T04:10:12.891Z,0
2017-05-03T04:10:53.402Z,0
2017-05-03T04:11:33.883Z,0
2017-05-03T04:12:14.406Z,0
2017-05-03T04:12:54.919Z,0
2017-05-03T04:13:35.414Z,0
2017-05-03T04:14:15.959Z,5
2017-05-03T04:14:56.443Z,5
2017-05-03T04:15:36.954Z,5
2017-05-03T04:16:17.463Z,5
2017-05-03T04:16:57.954Z,5
2017-05-03T04:17:38.477Z,5
2017-05-03T04:18:19.020Z,5
2017-05-03T04:18:59.546Z,5
2017-05-03T04:19:40.087Z,5
2017-05-03T04:20:20.607Z,5
2017-05-03T04:21:01.122Z,5
2017-05-03T04:21:41.624Z,5
2017-05-03T04:22:22.164Z,5
2017-05-03T04:23:02.681Z,5
2017-05-03T04:23:43.208Z,5
2017-05-03T04:24:23.709Z,5
2017-05-03T04:25:04.251Z,10
2017-05-03T04:25:44.785Z,10
2017-05-03T04:26:25.298Z,10
2017-05-03T04:27:05.819Z,10
2017-05-03T04:27:46.355Z,10
2017-05-03T04:28:26.913Z,10
2017-05-03T04:29:07.408Z,10
2017-05-03T04:29:47.906Z,10
2017-05-03T04:30:28.393Z,10
2017-05-03T04:31:08.923Z,15
2017-05-03T04:31:49.449Z,15
2017-05-03T04:32:29.961Z,15
2017-05-03T04:33:10.473Z,15
2017-05-03T04:33:50.981Z,15
2017-05-03T04:34:31.479Z,15
2017-05-03T04:35:11.995Z,15
2017-05-03T04:35:52.538Z,15
2017-05-03T04:36:33.034Z,15
2017-05-03T04:37:13.569Z,15
2017-05-03T04:37:54.077Z,15
2017-05-03T04:38:34.587Z,15
2017-05-03T04:39:15.104Z,15
2017-05-03T04:39:55.612Z,15
2017-05-03T04:40:36.115Z,20
2017-05-03T04:41:16.658Z,20
2017-05-03T04:41:57.150Z,20
2017-05-03T04:42:37.661Z,20
2017-05-03T04:43:18.191Z,20
2017-05-03T04:43:58.697Z,20
2017-05-03T04:44:39.190Z,20
2017-05-03T04:45:19.713Z,20
2017-05-03T04:46:00.224Z,20
2017-05-03T04:46:40.724Z,20
2017-05-03T04:47:21.255Z,20
2017-05-03T04:48:01.787Z,20
2017-05-03T04:48:42.328Z,25
2017-05-03T04:49:22.857Z,20
2017-05-03T04:50:03.410Z,20
2017-05-03T04:50:43.890Z,20
2017-05-03T04:51:24.410Z,20
2017-05-03T04:52:04.926Z,20
2017-05-03T04:52:45.440Z,25
2017-05-03T04:53:25.967Z,25
2017-05-03T04:54:06.457Z,25
2017-05-03T04:54:46.983Z,25
2017-05-03T04:55:27.465Z,25
2017-05-03T04:56:07.964Z,25
2017-05-03T04:56:48.445Z,25
2017-05-03T04:57:28.959Z,25
2017-05-03T04:58:09.470Z,25
2017-05-03T04:58:49.984Z,25
2017-05-03T04:59:30.508Z,25
2017-05-03T05:00:11.010Z,25
2017-05-03T05:00:51.520Z,30
2017-05-03T05:01:32.014Z,30
2017-05-03T05:02:12.515Z,35
2017-05-03T05:02:53.079Z,35
2017-05-03T05:03:33.586Z,35
2017-05-03T05:04:14.105Z,35
2017-05-03T05:04:54.604Z,35
2017-05-03T05:05:35.108Z,40
2017-05-03T05:06:15.624Z,40
2017-05-03T05:06:56.158Z,45
2017-05-03T05:07:36.697Z,45
2017-05-03T05:08:17.250Z,45
2017-05-03T05:08:57.757Z,45
2017-05-03T05:09:38.261Z,45
2017-05-03T05:10:18.801Z,40
2017-05-03T05:10:59.290Z,40
2017-05-03T05:11:39.792Z,40
2017-05-03T05:12:20.299Z,45
2017-05-03T05:13:00.821Z,45
2017-05-03T05:13:41.340Z,45
2017-05-03T05:14:21.925Z,45
2017-05-03T05:15:02.437Z,50
2017-05-03T05:15:42.953Z,50
2017-05-03T05:16:23.499Z,50
2017-05-03T05:17:04.007Z,50
2017-05-03T05:17:44.519Z,50
2017-05-03T05:18:25.055Z,50
2017-05-03T05:19:05.615Z,50
2017-05-03T05:19:46.137Z,45
2017-05-03T05:20:26.682Z,45
2017-05-03T05:21:07.174Z,45
2017-05-03T05:21:47.733Z,45
2017-05-03T05:22:28.253Z,45
2017-05-03T05:23:08.807Z,50
2017-05-03T05:23:49.338Z,50
2017-05-03T05:24:29.867Z,55
2017-05-03T05:25:10.359Z,55
2017-05-03T05:25:50.876Z,60
2017-05-03T05:26:31.354Z,65
2017-05-03T05:27:11.882Z,65
2017-05-03T05:27:52.433Z,65
2017-05-03T05:28:32.975Z,65
2017-05-03T05:29:13.508Z,65
2017-05-03T05:29:54.006Z,65
2017-05-03T05:30:36.210Z,70
2017-05-03T05:31:16.737Z,70
2017-05-03T05:31:57.282Z,75
2017-05-03T05:32:37.753Z,75
2017-05-03T05:33:18.278Z,80
2017-05-03T05:33:58.788Z,85
2017-05-03T05:34:39.325Z,85
2017-05-03T05:35:19.837Z,90
2017-05-03T05:36:00.424Z,95
2017-05-03T05:36:40.945Z,105
2017-05-03T05:37:21.470Z,105
2017-05-03T05:38:01.957Z,105
2017-05-03T05:38:42.465Z,100
2017-05-03T05:39:22.974Z,95
2017-05-03T05:40:03.461Z,90
2017-05-03T05:40:43.985Z,90
2017-05-03T05:41:24.536Z,85
2017-05-03T05:42:05.068Z,85
2017-05-03T05:42:45.578Z,85
2017-05-03T05:43:26.077Z,85
2017-05-03T05:44:06.580Z,85
2017-05-03T05:44:47.078Z,80
2017-05-03T05:45:27.566Z,75
2017-05-03T05:46:08.042Z,75
2017-05-03T05:46:48.775Z,75
2017-05-03T05:47:29.594Z,75
2017-05-03T05:48:10.075Z,80
2017-05-03T05:48:50.566Z,80
2017-05-03T05:49:31.093Z,85
2017-05-03T05:50:11.607Z,85
2017-05-03T05:50:52.116Z,90
2017-05-03T05:51:32.610Z,90
2017-05-03T05:52:13.113Z,90
2017-05-03T05:52:53.682Z,90
2017-05-03T05:53:34.137Z,90
2017-05-03T05:54:14.628Z,95
2017-05-03T05:54:55.135Z,95
2017-05-03T05:55:35.639Z,95
2017-05-03T05:56:16.148Z,95
2017-05-03T05:56:56.750Z,100
2017-05-03T05:57:37.254Z,100
2017-05-03T05:58:17.772Z,105
2017-05-03T05:58:58.282Z,110
2017-05-03T05:59:38.797Z,115
2017-05-03T06:00:19.302Z,120
2017-05-03T06:00:59.805Z,125
2017-05-03T06:01:40.316Z,125
2017-05-03T06:02:20.834Z,125
2017-05-03T06:03:01.385Z,125
2017-05-03T06:03:41.895Z,125
2017-05-03T06:04:22.404Z,125
2017-05-03T06:05:02.925Z,125
2017-05-03T06:05:43.505Z,125
2017-05-03T06:06:24.024Z,130
2017-05-03T06:07:04.554Z,130
2017-05-03T06:07:45.074Z,125
2017-05-03T06:08:25.594Z,125
2017-05-03T06:09:06.124Z,125
2017-05-03T06:09:46.631Z,125
2017-05-03T06:10:27.154Z,125
2017-05-03T06:11:07.728Z,125
2017-05-03T06:11:48.228Z,130
2017-05-03T06:12:28.743Z,130
2017-05-03T06:13:09.269Z,130
2017-05-03T06:13:49.791Z,135
2017-05-03T06:14:30.327Z,140
2017-05-03T06:15:10.836Z,140
2017-05-03T06:15:51.353Z,135
2017-05-03T06:16:31.862Z,135
2017-05-03T06:17:12.363Z,135
2017-05-03T06:17:52.883Z,135
2017-05-03T06:18:33.425Z,140
2017-05-03T06:19:13.905Z,140
2017-05-03T06:19:54.416Z,140
2017-05-03T06:20:34.900Z,145
2017-05-03T06:21:15.436Z,145
2017-05-03T06:21:55.953Z,140
2017-05-03T06:22:36.462Z,135
2017-05-03T06:23:16.986Z,135
2017-05-03T06:23:57.506Z,135
2017-05-03T06:24:38.051Z,130
2017-05-03T06:25:18.583Z,130
2017-05-03T06:25:59.091Z,130
2017-05-03T06:26:39.751Z,135
2017-05-03T06:27:20.315Z,140
2017-05-03T06:28:00.813Z,145
2017-05-03T06:28:41.319Z,150
2017-05-03T06:29:21.848Z,155
2017-05-03T06:30:02.393Z,160
2017-05-03T06:30:42.917Z,165
2017-05-03T06:31:23.424Z,165
2017-05-03T06:32:03.941Z,165
2017-05-03T06:32:44.483Z,155
2017-05-03T06:33:25.026Z,155
2017-05-03T06:34:05.492Z,160
2017-05-03T06:34:46.010Z,160
2017-05-03T06:35:26.496Z,170
2017-05-03T06:36:07.662Z,175
2017-05-03T06:36:48.671Z,190
2017-05-03T06:37:29.562Z,205
2017-05-03T06:38:10.392Z,215
2017-05-03T06:38:50.934Z,215
2017-05-03T06:39:31.442Z,210
2017-05-03T06:40:11.965Z,210
2017-05-03T06:40:52.516Z,210
2017-05-03T06:41:33.041Z,220
2017-05-03T06:42:13.596Z,225
2017-05-03T06:42:54.080Z,230
2017-05-03T06:43:34.633Z,230
2017-05-03T06:44:15.152Z,230
2017-05-03T06:44:55.671Z,230
2017-05-03T06:45:36.201Z,230
2017-05-03T06:46:16.723Z,230
2017-05-03T06:46:57.284Z,230
2017-05-03T06:47:37.782Z,230
2017-05-03T06:48:18.304Z,230
2017-05-03T06:48:58.837Z,230
2017-05-03T06:49:39.362Z,225
2017-05-03T06:50:19.915Z,215
2017-05-03T06:51:00.405Z,205
2017-05-03T06:51:40.933Z,205
2017-05-03T06:52:21.455Z,205
2017-05-03T06:53:01.959Z,205
2017-05-03T06:53:42.482Z,200
2017-05-03T06:54:23.005Z,200
2017-05-03T06:55:03.554Z,195
2017-05-03T06:55:44.043Z,210
2017-05-03T06:56:24.571Z,215
2017-05-03T06:57:05.069Z,220
2017-05-03T06:57:45.624Z,230
2017-05-03T06:58:26.118Z,225
2017-05-03T06:59:06.656Z,230
2017-05-03T06:59:47.184Z,225
2017-05-03T07:00:27.700Z,225
2017-05-03T07:01:08.234Z,225
2017-05-03T07:01:48.764Z,220
2017-05-03T07:02:29.270Z,225
2017-05-03T07:03:09.786Z,230
2017-05-03T07:03:50.323Z,250
2017-05-03T07:04:30.840Z,265
2017-05-03T07:05:11.347Z,270
2017-05-03T07:05:51.886Z,270
2017-05-03T07:06:32.428Z,270
2017-05-03T07:07:12.963Z,260
2017-05-03T07:07:53.479Z,250
2017-05-03T07:08:34.005Z,250
2017-05-03T07:09:14.521Z,245
2017-05-03T07:09:55.094Z,235
2017-05-03T07:10:35.562Z,225
2017-05-03T07:11:16.089Z,230
2017-05-03T07:11:56.616Z,230
2017-05-03T07:12:37.137Z,225
2017-05-03T07:13:17.658Z,215
2017-05-03T07:13:58.194Z,205
2017-05-03T07:14:38.716Z,205
2017-05-03T07:15:19.222Z,200
2017-05-03T07:15:59.745Z,195
2017-05-03T07:16:40.273Z,185
2017-05-03T07:17:20.831Z,175
2017-05-03T07:18:01.319Z,165
2017-05-03T07:18:41.843Z,160
2017-05-03T07:19:22.350Z,155
2017-05-03T07:20:02.879Z,145
2017-05-03T07:20:43.395Z,140
2017-05-03T07:21:23.939Z,135
2017-05-03T07:22:04.466Z,135
2017-05-03T07:22:44.975Z,130
2017-05-03T07:23:25.521Z,130
2017-05-03T07:24:06.051Z,130
2017-05-03T07:24:46.560Z,135
2017-05-03T07:25:27.075Z,140
2017-05-03T07:26:07.601Z,145
2017-05-03T07:26:48.125Z,150
2017-05-03T07:27:28.649Z,160
2017-05-03T07:28:09.158Z,170
2017-05-03T07:28:49.671Z,175
2017-05-03T07:29:30.196Z,185
2017-05-03T07:30:10.719Z,190
2017-05-03T07:30:51.229Z,195
2017-05-03T07:31:31.760Z,195
2017-05-03T07:32:12.285Z,190
2017-05-03T07:32:52.802Z,190
2017-05-03T07:33:33.333Z,190
2017-05-03T07:34:13.852Z,190
2017-05-03T07:34:54.370Z,190
2017-05-03T07:35:34.908Z,190
2017-05-03T07:36:15.456Z,180
2017-05-03T07:36:55.930Z,180
2017-05-03T07:37:36.458Z,175
2017-05-03T07:38:16.976Z,180
2017-05-03T07:38:57.493Z,195
2017-05-03T07:39:38.021Z,195
2017-05-03T07:40:18.522Z,195
2017-05-03T07:40:59.017Z,190
2017-05-03T07:41:39.531Z,185
2017-05-03T07:42:20.072Z,185
2017-05-03T07:43:00.594Z,200
2017-05-03T07:43:41.113Z,215
2017-05-03T07:44:21.655Z,225
2017-05-03T07:45:02.193Z,230
2017-05-03T07:45:42.722Z,250
2017-05-03T07:46:23.246Z,255
2017-05-03T07:47:03.779Z,255
2017-05-03T07:47:44.297Z,255
2017-05-03T07:48:24.824Z,245
2017-05-03T07:49:05.360Z,235
2017-05-03T07:49:45.880Z,230
2017-05-03T07:50:26.394Z,245
2017-05-03T07:51:06.946Z,260
2017-05-03T07:51:47.412Z,265
2017-05-03T07:52:27.956Z,255
2017-05-03T07:53:08.485Z,245
2017-05-03T07:53:49.050Z,235
2017-05-03T07:54:29.562Z,225
2017-05-03T07:55:10.106Z,230
2017-05-03T07:55:50.598Z,240
2017-05-03T07:56:31.094Z,265
2017-05-03T07:57:11.609Z,295
2017-05-03T07:57:52.146Z,320
2017-05-03T07:58:32.699Z,330
2017-05-03T07:59:13.204Z,275
2017-05-03T07:59:53.720Z,260
2017-05-03T08:00:34.260Z,260
2017-05-03T08:01:14.801Z,265
2017-05-03T08:01:55.329Z,255
2017-05-03T08:02:35.861Z,255
2017-05-03T08:03:16.412Z,265
2017-05-03T08:03:56.941Z,300
2017-05-03T08:04:37.463Z,325
2017-05-03T08:05:17.996Z,315
2017-05-03T08:05:58.531Z,265
2017-05-03T08:06:39.061Z,275
2017-05-03T08:07:19.634Z,300
2017-05-03T08:08:00.186Z,330
2017-05-03T08:08:40.702Z,355
2017-05-03T08:09:21.196Z,395
2017-05-03T08:10:01.719Z,450
2017-05-03T08:10:42.236Z,425
2017-05-03T08:11:22.773Z,385
2017-05-03T08:12:03.286Z,325
2017-05-03T08:12:43.811Z,320
2017-05-03T08:13:24.342Z,360
2017-05-03T08:14:04.863Z,350
2017-05-03T08:14:45.388Z,375
2017-05-03T08:15:25.914Z,375
2017-05-03T08:16:06.433Z,400
2017-05-03T08:16:46.976Z,415
2017-05-03T08:17:27.491Z,425
2017-05-03T08:18:08.002Z,430
2017-05-03T08:18:48.536Z,440
2017-05-03T08:19:29.049Z,465
2017-05-03T08:20:09.560Z,500
2017-05-03T08:20:50.099Z,555
2017-05-03T08:21:30.639Z,640
2017-05-03T08:22:11.181Z,855
2017-05-03T08:22:51.719Z,750
2017-05-03T08:23:32.244Z,545
2017-05-03T08:24:12.795Z,385
2017-05-03T08:24:53.319Z,315
2017-05-03T08:25:33.841Z,310
2017-05-03T08:26:14.375Z,345
2017-05-03T08:26:54.914Z,405
2017-05-03T08:27:35.446Z,405
2017-05-03T08:28:15.993Z,420
2017-05-03T08:28:56.517Z,465
2017-05-03T08:29:37.040Z,450
2017-05-03T08:30:17.614Z,465
2017-05-03T08:30:58.134Z,380
2017-05-03T08:31:38.637Z,420
2017-05-03T08:32:19.178Z,515
2017-05-03T08:32:59.719Z,545
2017-05-03T08:33:40.257Z,610
2017-05-03T08:34:20.758Z,640
2017-05-03T08:35:01.274Z,500
2017-05-03T08:35:41.817Z,465
2017-05-03T08:36:22.320Z,415
2017-05-03T08:37:02.833Z,385
2017-05-03T08:37:43.357Z,305
2017-05-03T08:38:23.871Z,265
2017-05-03T08:39:04.410Z,245
2017-05-03T08:39:44.921Z,230
2017-05-03T08:40:25.443Z,215
2017-05-03T08:41:05.970Z,185
2017-05-03T08:41:46.489Z,170
2017-05-03T08:42:27.019Z,165
2017-05-03T08:43:07.550Z,180
2017-05-03T08:43:48.077Z,185
2017-05-03T08:44:28.620Z,190
2017-05-03T08:45:09.141Z,195
2017-05-03T08:45:49.667Z,210
2017-05-03T08:46:30.201Z,210
2017-05-03T08:47:10.742Z,225
2017-05-03T08:47:51.263Z,235
2017-05-03T08:48:31.803Z,245
2017-05-03T08:49:12.328Z,240
2017-05-03T08:49:52.849Z,250
2017-05-03T08:50:33.386Z,245
2017-05-03T08:51:13.923Z,245
2017-05-03T08:51:54.460Z,260
2017-05-03T08:52:34.982Z,260
2017-05-03T08:53:15.502Z,285
2017-05-03T08:53:56.028Z,305
2017-05-03T08:54:36.560Z,325
2017-05-03T08:55:17.091Z,345
2017-05-03T08:55:57.612Z,335
2017-05-03T08:56:38.138Z,305
2017-05-03T08:57:18.661Z,270
2017-05-03T08:57:59.211Z,240
2017-05-03T08:58:39.722Z,210
2017-05-03T08:59:20.241Z,195
2017-05-03T09:00:00.780Z,200
2017-05-03T09:00:41.312Z,200
2017-05-03T09:01:21.843Z,210
2017-05-03T09:02:02.351Z,215
2017-05-03T09:02:42.888Z,200
2017-05-03T09:03:23.423Z,205
2017-05-03T09:04:03.964Z,205
2017-05-03T09:04:44.507Z,220
2017-05-03T09:05:25.041Z,250
2017-05-03T09:06:05.571Z,290
2017-05-03T09:06:46.098Z,320
2017-05-03T09:07:26.635Z,335
2017-05-03T09:08:07.158Z,345
2017-05-03T09:08:47.697Z,315
2017-05-03T09:09:28.205Z,275
2017-05-03T09:10:08.738Z,280
2017-05-03T09:10:49.288Z,265
2017-05-03T09:11:29.824Z,250
2017-05-03T09:12:10.351Z,250
2017-05-03T09:12:50.881Z,265
2017-05-03T09:13:31.418Z,295
2017-05-03T09:14:11.941Z,330
2017-05-03T09:14:52.453Z,390
2017-05-03T09:15:32.972Z,445
2017-05-03T09:16:13.496Z,445
2017-05-03T09:16:54.021Z,470
2017-05-03T09:17:34.518Z,490
2017-05-03T09:18:15.060Z,530
2017-05-03T09:18:55.579Z,565
2017-05-03T09:19:36.125Z,570
2017-05-03T09:20:16.649Z,510
2017-05-03T09:20:57.171Z,480
2017-05-03T09:21:37.699Z,575
2017-05-03T09:22:18.227Z,650
2017-05-03T09:22:58.753Z,1415
2017-05-03T09:23:39.270Z,605
2017-05-03T09:24:19.801Z,450
2017-05-03T09:25:00.349Z,340
2017-05-03T09:25:40.844Z,255
2017-05-03T09:26:21.356Z,235
2017-05-03T09:27:01.894Z,225
2017-05-03T09:27:42.435Z,225
2017-05-03T09:28:22.962Z,250
2017-05-03T09:29:03.472Z,275
2017-05-03T09:29:44.000Z,275
2017-05-03T09:30:24.536Z,285
2017-05-03T09:31:05.077Z,305
2017-05-03T09:31:45.605Z,340
2017-05-03T09:32:26.157Z,325
2017-05-03T09:33:06.645Z,315
2017-05-03T09:33:47.150Z,285
2017-05-03T09:34:27.679Z,265
2017-05-03T09:35:08.211Z,255
2017-05-03T09:35:48.750Z,225
2017-05-03T09:36:29.283Z,250
2017-05-03T09:37:09.811Z,275
2017-05-03T09:37:50.345Z,295
2017-05-03T09:38:30.879Z,320
2017-05-03T09:39:11.423Z,325